Richlands, VA

9:38 PM EDT on July 29, 2014 (GMT -0400)
Tazewell County (KJFZ) Elev 2651 ft | 37.06 °N, 81.80 °W | Change Station

Current weather conditions updated 23 minutes ago

Scattered Clouds
Scattered Clouds
62 °F
Feels Like 62 °F
N
5
Wind Variable Wind from NW

Tomorrow is forecast to be Warmer than today.

Today
High -- | Low -- °F
--% Chance of Precip.
Yesterday
High -- | Low -- °F
Precip. -- in
6:29 AM 8:37 PM
Waxing Crescent, 9% visible
Pressure 30.11 in
Visibility 10.0 miles
Clouds Scattered Clouds 5000 ft
Dew Point 51 °F
Humidity 67%
Rainfall 0.00 in
Snow Depth Not available.
UV 0 out of 12
Pollen 4.80 out of 12
Air Quality Not available.
Flu Activity Not available.
METAR KJFZ 300115Z AUTO 31004KT 10SM SCT050 17/11 A3011 RMK AO2 T01690107

More Conditions Fewer Conditions

Pressure 30.11 in
Visibility 10.0 miles
Clouds Scattered Clouds 5000 ft
Dew Point 51 °F
Humidity 67%
Rainfall 0.00 in
Snow Depth Not available.
UV 0 out of 12
Pollen 4.80 out of 12
Air Quality Not available.
Flu Activity Not available.
METAR KJFZ 300115Z AUTO 31004KT 10SM SCT050 17/11 A3011 RMK AO2 T01690107

More Conditions Fewer Conditions

10-Day Weather Forecast

Almanac

Astronomy

Jul. 29, 2014 Rise Set
Actual Time 6:29 AM EDT 8:37 PM EDT
Civil Twilight 6:00 AM EDT 9:06 PM EDT
Nautical Twilight 5:25 AM EDT 9:41 PM EDT
Astronomical Twilight 4:46 AM EDT 10:19 PM EDT
Moon 9:00 AM EDT (7/29) 9:54 PM EDT (7/29)
Length of Visible Light 15h 05m
Length of Day
14h 07m
Tomorrow will be 1m 42s shorter.
Waxing Crescent, 9% of the Moon is Illuminated
Today
Waxing Crescent
Aug 3
First Quarter
Aug 10
Full
Aug 17
Last Quarter
Aug 25
New

Today's Extremes

State Highs State Lows

Community

WunderPhotos

Upload Photos

1,738,939 photos uploaded!

Nearby

Snow Depth

Station Depth Elevation
No new snow has been reported.

Earthquake Activity

City Distance Mag. Time & Date
No recent earthquake activity has been reported nearby.
Minimum magnitude displayed is 2.5.

Coastal Water Temperatures

Place Temperature
No Stations Reporting

Nearby Weather Stations

Station Location Temp. Dew Point Humidity Wind Precip. Elev Updated Type
Poor Valley, Saltville, VA 57.2 °F 48 °F 72% WNW  at  0.0 mph 0.00 in / hr 1850 ft 9:35 PM EDT Normal
Glade Spring, VA 59.9 °F 52 °F 74% NW  at  0.0 mph 0.00 in / hr 2140 ft 9:35 PM EDT Normal
Smyth Weather, Marion, VA 62.5 °F 53 °F 71% North  at  0.0 mph 0.00 in / hr 2157 ft 9:38 PM EDT Rapid Fire
Mt. Carmel, Marion, VA 61.7 °F 53 °F 72% West  at  0.0 mph - / hr 2256 ft 9:36 PM EDT Normal

Show More Stations Show Fewer Stations